Aviation Digital Data Service (ADDS)

Output produced by METARs form (0259 UTC 18 August 2017)
found at http://www.aviationweather.gov/adds/metars/
 
EYKA 180250Z 09003KT CAVOK 14/11 Q1018
TAF EYKA 172309Z 1800/1824 VRB04KT 5000 MIFG BR SCT005 
     PROB40 
     TEMPO 1800/1805 1000 SCT002 
     BECMG 1805/1807 9000 NSC 
     TEMPO 1809/1815 22014KT
       
EYPA 180250Z 12007KT CAVOK 14/12 Q1016
TAF EYPA 172305Z 1800/1824 13008KT 5000 MIFG BR SCT006 BKN030 
     PROB40 
     TEMPO 1800/1806 0500 FG VV002 
     BECMG 1806/1807 9000 
     TEMPO 1807/1810 BKN025CB 
     BECMG 1809/1810 18018KT 
     TEMPO 1811/1816 SHRA BKN020CB 
     BECMG 1815/1817 VRB04KT
       
EYSA 180250Z 09003KT CAVOK 12/11 Q1018 BLU NOSIG
TAF EYSA 180204Z 1803/1812 12006KT 6000 SCT045 
     PROB40 
     TEMPO 1803/1806 1000 MIFG BR SCT003 
     BECMG 1806/1807 BKN035 
     BECMG 1809/1810 18016KT
       
EYVI 180250Z VRB01KT CAVOK 17/15 Q1019 NOSIG
TAF EYVI 172314Z 1800/1824 VRB04KT 5000 MIFG BR SCT006 BKN045CB 
     PROB40 
     TEMPO 1800/1806 3000 TSRA 
     BECMG 1806/1807 9000 SCT030 
     TEMPO 1809/1818 19014KT 3000 TSRA BKN025CB